Aérodrome :
LOGIN :

S'inscrire | Disclaimer

   EN    FR    IT 

 










Légende :    VFR   VFR Marginal   IFR   IFR Intensif   IFR Très Intensif
Visi : 
Plafond : 
>= 8 km
>= 3000ft
5 à 8 km
1000 à 3000 ft
1500m à 5 km
500 à 1000 ft
800 à 1500m
200 à 500 ft
< 800m
< 200 ft
Symboles :   Orages  Brouillard  Fortes neiges  Fortes précipitations  Vent > 20 kt
SIGMETs :   Divers  Orages  Givrage  Turbulence  Onde Orograph.  Cendres Volcan.






- Altitude de l'aérodrome : 325 ft
- Code IATA : BES


LFRB - Brest

DERNIER METAR :
  • 200630Z AUTO 36003KT 330V030 9000 -RA FEW040/// BKN047/// OVC054/// ///TCU 11/10 Q1020 TEMPO 4000 RA BECMG NSC

METARs EXPIRÉS :
  • 200600Z AUTO 30004KT 9999 -RA BKN049 OVC064 12/10 Q1021 TEMPO 4000 RA BKN014
  • 200530Z AUTO 32005KT 9999 -RA //////TCU 12/10 Q1020 TEMPO 4000 RA BKN014
  • 200500Z AUTO VRB03KT 9999 ///TCU 11/10 Q1020 TEMPO 4000 RA BKN014
  • 200430Z AUTO VRB03KT 9999 -RA ///TCU 11/09 Q1020 TEMPO 4000 RA BKN014
  • 200400Z AUTO 33005KT CAVOK 11/09 Q1020 TEMPO 4000 RA BKN014
  • 200330Z AUTO 31003KT CAVOK 11/09 Q1020 TEMPO 4000 RA BKN014

TAF TAF LFRB
Valide du 20 à 06h jusqu'au 21 à 12h UTC


200500Z 2006/2112 VRB05KT CAVOK
TEMPO 2006/2008 4000 RA BKN014
BECMG 2009/2011 23012KT
PROB40
TEMPO 2013/2017 25015G25KT
BECMG 2019/2022 VRB05KT BKN012
TEMPO 2022/2107 BKN007
BECMG 2107/2109 SCT020
ATIS : +33 2 98 32 02 71



MET'MAP, la Météo Aéronautique d'un coup d'oeil ! - Copyright ORBIFLY Décembre 2007 - Disclaimer

ORBIFLY MET'MAP TEAM :

Programmation & Développement : Alexandra Zaïnal
Sur une idée originale de : Baudouin d'Aumeries
Soutien technique & logistique : Manuel Goepfert
Assistance : Marc-Olivier Méhu

Contact : metmap@orbifly.com




SOURCES & CREDITS :

   NOAA